Time;durP1;ratioP1;P1;durP2;ratioP2;P2;SDS_P1;SDS_P2;PMS_P1;PMS_P2;Temp;Humidity;BMP_temperature;BMP_pressure;BME280_temperature;BME280_humidity;BME280_pressure;Samples;Min_cycle;Max_cycle;Signal;HPM_P1;HPM_P2
2021/01/21 00:00:17;;;;;;;14.03;6.83;;;10.20;99.90;;;;;;5014956;28;20683;-83
2021/01/21 00:02:43;;;;;;;9.30;7.43;;;10.10;99.90;;;;;;5014408;28;20208;-79
2021/01/21 00:05:10;;;;;;;14.17;7.43;;;9.90;99.90;;;;;;5014054;28;20676;-78
2021/01/21 00:07:37;;;;;;;14.77;8.03;;;9.90;99.90;;;;;;5014767;28;20211;-88
2021/01/21 00:10:05;;;;;;;13.27;7.37;;;9.90;99.90;;;;;;5014998;28;20215;-89
2021/01/21 00:12:32;;;;;;;11.33;7.10;;;10.00;99.90;;;;;;5015102;28;20242;-85
2021/01/21 00:14:58;;;;;;;13.83;7.63;;;10.00;99.90;;;;;;5014565;28;20240;-89
2021/01/21 00:17:25;;;;;;;13.20;6.83;;;10.00;99.90;;;;;;5015143;28;20219;-85
2021/01/21 00:19:51;;;;;;;13.43;7.47;;;9.90;99.90;;;;;;5015211;28;20294;-85
2021/01/21 00:22:18;;;;;;;10.80;7.13;;;9.90;99.90;;;;;;5014696;28;20219;-80
2021/01/21 00:24:44;;;;;;;14.93;7.07;;;9.90;99.90;;;;;;5014798;28;20212;-89
2021/01/21 00:27:11;;;;;;;16.10;8.60;;;9.80;99.90;;;;;;5014564;28;20247;-87
2021/01/21 00:29:38;;;;;;;11.73;7.10;;;9.80;99.90;;;;;;5014689;28;20588;-82
2021/01/21 00:32:05;;;;;;;13.50;7.60;;;9.80;99.90;;;;;;5014047;28;20204;-83
2021/01/21 00:34:31;;;;;;;19.90;9.13;;;9.70;99.90;;;;;;5014746;28;20272;-84
2021/01/21 00:36:58;;;;;;;18.27;8.23;;;9.60;99.90;;;;;;5014109;28;20243;-79
2021/01/21 00:39:24;;;;;;;17.03;9.50;;;9.80;99.90;;;;;;5014538;28;20215;-80
2021/01/21 00:41:51;;;;;;;18.17;9.73;;;9.80;99.90;;;;;;5014376;28;20653;-83
2021/01/21 00:44:18;;;;;;;16.43;7.97;;;9.90;99.90;;;;;;5013672;28;20688;-84
2021/01/21 00:46:44;;;;;;;16.27;8.30;;;9.80;99.90;;;;;;5013232;28;20262;-85
2021/01/21 00:49:11;;;;;;;13.70;8.40;;;9.70;99.90;;;;;;5013814;28;20216;-84
2021/01/21 00:51:37;;;;;;;26.90;10.40;;;9.70;99.90;;;;;;5014273;28;20243;-92
2021/01/21 00:54:04;;;;;;;18.60;9.07;;;9.70;99.90;;;;;;5014740;28;20232;-80
2021/01/21 00:56:30;;;;;;;15.80;7.27;;;9.70;99.90;;;;;;5014097;28;20278;-82
2021/01/21 00:58:56;;;;;;;12.23;7.73;;;9.70;99.90;;;;;;5014023;28;20216;-86
2021/01/21 01:01:24;;;;;;;15.00;9.20;;;9.80;99.90;;;;;;5013734;28;20539;-80
2021/01/21 01:03:51;;;;;;;17.27;9.43;;;9.80;99.90;;;;;;5014765;28;20266;-82
2021/01/21 01:06:17;;;;;;;19.03;8.33;;;9.70;99.90;;;;;;5013281;28;20204;-84
2021/01/21 01:08:44;;;;;;;20.60;8.63;;;9.70;99.90;;;;;;5013853;28;20208;-84
2021/01/21 01:11:10;;;;;;;18.50;7.73;;;9.70;99.90;;;;;;5013181;28;20560;-81
2021/01/21 01:13:37;;;;;;;15.47;8.00;;;9.70;99.90;;;;;;5013693;28;20294;-84
2021/01/21 01:16:04;;;;;;;14.03;8.07;;;9.60;99.90;;;;;;5013311;28;20208;-82
2021/01/21 01:18:32;;;;;;;21.50;8.77;;;9.70;99.90;;;;;;5000038;28;20251;-84
2021/01/21 01:20:58;;;;;;;21.47;8.27;;;9.60;99.90;;;;;;5013449;28;20216;-84
2021/01/21 01:23:24;;;;;;;18.57;8.03;;;9.60;99.90;;;;;;5013191;28;20683;-84
2021/01/21 01:25:53;;;;;;;12.53;7.97;;;9.70;99.90;;;;;;5013425;28;20590;-81
2021/01/21 01:28:19;;;;;;;10.77;7.50;;;9.80;99.90;;;;;;5013849;28;20208;-88
2021/01/21 01:30:46;;;;;;;12.63;7.13;;;9.80;99.90;;;;;;5013439;28;20216;-82
2021/01/21 01:33:12;;;;;;;12.73;7.10;;;9.80;99.90;;;;;;5012356;28;20310;-82
2021/01/21 01:35:39;;;;;;;15.60;6.90;;;9.70;99.90;;;;;;5012916;28;20258;-77
2021/01/21 01:38:06;;;;;;;13.57;7.70;;;9.60;99.90;;;;;;5012370;28;20239;-80
2021/01/21 01:40:32;;;;;;;12.07;7.10;;;9.60;99.90;;;;;;5012274;28;20587;-81
2021/01/21 01:42:59;;;;;;;14.73;8.27;;;9.60;99.90;;;;;;5012129;28;20771;-81
2021/01/21 01:45:25;;;;;;;16.87;7.67;;;9.70;99.90;;;;;;5012813;28;20208;-82
2021/01/21 01:47:52;;;;;;;12.83;7.50;;;9.80;99.90;;;;;;5013482;28;20719;-88
2021/01/21 01:50:19;;;;;;;13.17;8.07;;;9.80;99.90;;;;;;5013198;28;20212;-86
2021/01/21 01:52:46;;;;;;;19.60;9.23;;;9.70;99.90;;;;;;5013237;28;20204;-82
2021/01/21 01:55:13;;;;;;;15.50;8.80;;;9.50;99.90;;;;;;5012669;28;20204;-82
2021/01/21 01:57:40;;;;;;;13.47;8.37;;;9.50;99.90;;;;;;5011963;28;20208;-80
2021/01/21 02:00:08;;;;;;;17.77;8.00;;;9.50;99.90;;;;;;5011641;28;20212;-79
2021/01/21 02:02:35;;;;;;;14.70;7.27;;;9.50;99.90;;;;;;5011952;28;20212;-80
2021/01/21 02:05:02;;;;;;;12.97;8.13;;;9.50;99.90;;;;;;5011886;28;20211;-81
2021/01/21 02:07:28;;;;;;;21.97;9.87;;;9.30;99.90;;;;;;5012138;28;20689;-77
2021/01/21 02:09:59;;;;;;;18.67;10.33;;;9.10;99.90;;;;;;5011557;28;20649;-77
2021/01/21 02:12:37;;;;;;;16.77;10.23;;;8.90;99.90;;;;;;5012800;28;20216;-88
2021/01/21 02:15:12;;;;;;;15.43;10.87;;;8.80;99.90;;;;;;5012627;28;20212;-88
2021/01/21 02:17:45;;;;;;;17.53;11.17;;;8.90;99.90;;;;;;5012954;28;20212;-82
2021/01/21 02:20:34;;;;;;;24.97;13.17;;;8.70;99.90;;;;;;5012696;28;20212;-85
2021/01/21 02:23:31;;;;;;;22.23;11.80;;;8.60;99.90;;;;;;5012354;28;20208;-85
2021/01/21 02:26:04;;;;;;;18.80;11.70;;;8.50;99.90;;;;;;5011010;28;20278;-87
2021/01/21 02:29:00;;;;;;;19.53;13.03;;;8.40;99.90;;;;;;5012350;28;20240;-88
2021/01/21 02:31:29;;;;;;;18.30;11.83;;;8.40;99.90;;;;;;5012647;28;20209;-88
2021/01/21 02:34:01;;;;;;;19.50;12.13;;;8.20;99.90;;;;;;5011487;28;20638;-78
2021/01/21 02:36:32;;;;;;;19.13;12.43;;;8.20;99.90;;;;;;4999088;28;20227;-82
2021/01/21 02:39:01;;;;;;;21.63;12.27;;;8.10;99.90;;;;;;5011478;28;20584;-76
2021/01/21 02:41:27;;;;;;;21.07;13.57;;;8.10;99.90;;;;;;5011645;28;20204;-90
2021/01/21 02:43:54;;;;;;;21.37;12.23;;;8.00;99.90;;;;;;5011403;28;20270;-79
2021/01/21 02:46:21;;;;;;;25.47;13.70;;;8.00;99.90;;;;;;5011728;28;20698;-82
2021/01/21 02:48:50;;;;;;;18.93;12.77;;;7.90;99.90;;;;;;5011896;28;20212;-82
2021/01/21 02:51:24;;;;;;;18.57;13.63;;;7.90;99.90;;;;;;5011003;28;20281;-81
2021/01/21 02:54:02;;;;;;;26.23;13.83;;;7.80;99.90;;;;;;5011544;28;20706;-80
2021/01/21 02:56:32;;;;;;;20.17;14.00;;;7.80;99.90;;;;;;5011126;28;20260;-80
2021/01/21 02:59:02;;;;;;;24.80;13.40;;;7.70;99.90;;;;;;5011380;28;20207;-81
2021/01/21 03:01:34;;;;;;;23.77;13.03;;;7.60;99.90;;;;;;5011317;28;20258;-83
2021/01/21 03:04:02;;;;;;;21.77;13.90;;;7.60;99.90;;;;;;5010999;28;20702;-81
2021/01/21 03:06:32;;;;;;;20.83;13.97;;;7.60;99.90;;;;;;5011642;28;20252;-82
2021/01/21 03:09:00;;;;;;;25.10;14.07;;;7.60;99.90;;;;;;5011363;28;20207;-82
2021/01/21 03:11:27;;;;;;;22.03;14.30;;;7.70;99.90;;;;;;5011084;28;20204;-80
2021/01/21 03:13:54;;;;;;;19.20;12.80;;;7.70;99.90;;;;;;5011596;28;20238;-81
2021/01/21 03:16:20;;;;;;;19.40;12.20;;;7.80;99.90;;;;;;5011526;28;20713;-83
2021/01/21 03:18:50;;;;;;;21.23;14.33;;;7.90;99.90;;;;;;5010964;28;20243;-84
2021/01/21 03:21:17;;;;;;;18.77;11.83;;;7.90;99.90;;;;;;5022111;28;20215;-82
2021/01/21 03:23:46;;;;;;;18.20;12.90;;;7.90;99.90;;;;;;5014247;28;20243;-84
2021/01/21 03:26:12;;;;;;;16.70;12.90;;;7.90;99.90;;;;;;5011146;28;20290;-83
2021/01/21 03:28:39;;;;;;;22.47;13.00;;;8.10;99.90;;;;;;5011305;28;20262;-81
2021/01/21 03:31:05;;;;;;;21.83;13.27;;;8.20;99.90;;;;;;5010715;28;20629;-81
2021/01/21 03:33:32;;;;;;;15.17;12.07;;;8.20;99.90;;;;;;5011070;28;20322;-81
2021/01/21 03:35:58;;;;;;;22.30;12.00;;;8.30;99.90;;;;;;5010460;28;20247;-80
2021/01/21 03:38:25;;;;;;;20.83;12.70;;;8.20;99.90;;;;;;5012976;28;20242;-86
2021/01/21 03:40:52;;;;;;;23.70;12.83;;;8.20;99.90;;;;;;5013051;28;20201;-87
2021/01/21 03:43:19;;;;;;;22.87;13.90;;;8.20;99.90;;;;;;5012705;28;20212;-88
2021/01/21 03:45:45;;;;;;;21.30;13.30;;;8.10;99.90;;;;;;5011251;28;20220;-80
2021/01/21 03:48:12;;;;;;;16.43;10.97;;;8.20;99.90;;;;;;5010846;28;20258;-81
2021/01/21 03:50:38;;;;;;;20.03;10.83;;;8.60;99.90;;;;;;5010882;28;20247;-80
2021/01/21 03:53:05;;;;;;;17.87;12.30;;;8.70;99.90;;;;;;5010029;28;20608;-81
2021/01/21 03:55:31;;;;;;;20.67;12.23;;;8.60;99.90;;;;;;5010457;28;20223;-82
2021/01/21 03:57:58;;;;;;;17.67;10.57;;;8.50;99.90;;;;;;5010708;28;20200;-83
2021/01/21 04:00:25;;;;;;;22.57;11.27;;;8.40;99.90;;;;;;5011060;28;20223;-80
2021/01/21 04:02:51;;;;;;;19.83;11.07;;;8.40;99.90;;;;;;5011051;28;20213;-82
2021/01/21 04:05:18;;;;;;;22.70;11.80;;;8.50;99.90;;;;;;5010617;28;20204;-78
2021/01/21 04:07:44;;;;;;;18.03;9.47;;;8.50;99.90;;;;;;5010507;28;20216;-86
2021/01/21 04:10:11;;;;;;;22.40;11.17;;;8.40;99.90;;;;;;5010330;28;20668;-86
2021/01/21 04:12:37;;;;;;;18.53;9.97;;;8.40;99.90;;;;;;5011395;28;20287;-87
2021/01/21 04:15:06;;;;;;;15.40;10.00;;;8.40;99.90;;;;;;5011022;28;20278;-87
2021/01/21 04:17:33;;;;;;;12.63;8.27;;;8.50;99.90;;;;;;5011546;28;20208;-86
2021/01/21 04:19:59;;;;;;;22.03;11.20;;;8.60;99.90;;;;;;5010866;28;20212;-84
2021/01/21 04:22:26;;;;;;;23.73;10.00;;;8.70;99.90;;;;;;5014765;28;20209;-86
2021/01/21 04:24:52;;;;;;;18.63;9.47;;;8.80;99.90;;;;;;5015007;28;20573;-87
2021/01/21 04:27:18;;;;;;;14.23;10.00;;;8.80;99.90;;;;;;5014845;28;20212;-87
2021/01/21 04:29:45;;;;;;;16.40;9.50;;;8.70;99.90;;;;;;5015204;28;20204;-87
2021/01/21 04:32:12;;;;;;;11.77;8.93;;;8.70;99.90;;;;;;5008936;28;20698;-86
2021/01/21 04:34:39;;;;;;;14.37;9.07;;;8.70;99.90;;;;;;5009298;28;20271;-80
2021/01/21 04:37:05;;;;;;;18.40;10.53;;;8.70;99.90;;;;;;5013968;28;20681;-81
2021/01/21 04:39:31;;;;;;;19.77;10.83;;;8.70;99.90;;;;;;5014479;28;20243;-87
2021/01/21 04:41:58;;;;;;;20.47;10.27;;;8.70;99.90;;;;;;5014163;28;20207;-86
2021/01/21 04:44:24;;;;;;;16.17;11.27;;;8.70;99.90;;;;;;5014257;28;20211;-83
2021/01/21 04:46:51;;;;;;;19.07;10.67;;;8.60;99.90;;;;;;5014968;28;20236;-84
2021/01/21 04:49:19;;;;;;;17.07;9.40;;;8.60;99.90;;;;;;5010416;28;20754;-82
2021/01/21 04:51:48;;;;;;;16.70;9.70;;;8.60;99.90;;;;;;5014283;28;20207;-83
2021/01/21 04:54:21;;;;;;;17.97;9.40;;;8.60;99.90;;;;;;5013024;28;20259;-82
2021/01/21 04:56:50;;;;;;;24.23;11.23;;;8.50;99.90;;;;;;5014086;28;20227;-84
2021/01/21 04:59:19;;;;;;;16.17;8.70;;;8.50;99.90;;;;;;5013405;28;20215;-85
2021/01/21 05:01:45;;;;;;;21.83;11.40;;;8.40;99.90;;;;;;5014305;28;20212;-82
2021/01/21 05:04:13;;;;;;;18.00;10.30;;;8.50;99.90;;;;;;5013591;28;20255;-89
2021/01/21 05:06:40;;;;;;;20.77;10.73;;;8.60;99.90;;;;;;5013801;28;20208;-82
2021/01/21 05:09:07;;;;;;;12.20;9.47;;;8.50;99.90;;;;;;5018236;28;20552;-90
2021/01/21 05:11:33;;;;;;;15.10;9.23;;;8.40;99.90;;;;;;5019314;28;20200;-85
2021/01/21 05:14:00;;;;;;;15.60;10.87;;;8.40;99.90;;;;;;5013870;28;20232;-83
2021/01/21 05:16:28;;;;;;;17.30;10.00;;;8.50;99.90;;;;;;5013699;28;20212;-82
2021/01/21 05:18:54;;;;;;;15.77;9.30;;;8.50;99.90;;;;;;5013503;28;20208;-78
2021/01/21 05:21:22;;;;;;;16.03;10.30;;;8.50;99.90;;;;;;5013577;28;20231;-86
2021/01/21 05:23:55;;;;;;;16.67;8.93;;;8.50;99.90;;;;;;5014386;28;20212;-86
2021/01/21 05:26:22;;;;;;;12.97;9.70;;;8.50;99.90;;;;;;5007790;28;20582;-87
2021/01/21 05:28:51;;;;;;;15.23;10.67;;;8.50;99.90;;;;;;5000403;28;20212;-89
2021/01/21 05:31:18;;;;;;;14.63;9.80;;;8.40;99.90;;;;;;5006048;28;20212;-89
2021/01/21 05:33:45;;;;;;;17.00;8.40;;;8.50;99.90;;;;;;5012722;28;20242;-85
2021/01/21 05:36:13;;;;;;;17.47;9.80;;;8.60;99.90;;;;;;5012873;28;20274;-81
2021/01/21 05:38:42;;;;;;;20.37;11.03;;;8.50;99.90;;;;;;5013814;28;20212;-91
2021/01/21 05:41:09;;;;;;;15.13;10.97;;;8.50;99.90;;;;;;5012758;28;20204;-88
2021/01/21 05:43:37;;;;;;;22.93;14.10;;;8.40;99.90;;;;;;5013984;28;20212;-90
2021/01/21 05:46:06;;;;;;;18.77;11.87;;;8.40;99.90;;;;;;5013208;28;20204;-88
2021/01/21 05:48:33;;;;;;;21.50;11.43;;;8.30;99.90;;;;;;5013591;28;20216;-90
2021/01/21 05:50:59;;;;;;;17.13;13.13;;;8.30;99.90;;;;;;5013098;28;20204;-90
2021/01/21 05:53:26;;;;;;;24.47;14.37;;;8.30;99.90;;;;;;5013738;28;20224;-81
2021/01/21 05:55:55;;;;;;;19.53;12.97;;;8.20;99.90;;;;;;5013861;28;20216;-72
2021/01/21 05:58:23;;;;;;;21.03;11.93;;;8.20;99.90;;;;;;5018016;28;20258;-90
2021/01/21 06:00:50;;;;;;;25.53;20.77;;;8.30;99.90;;;;;;5032462;28;20208;-83
2021/01/21 06:03:18;;;;;;;28.10;17.37;;;8.30;99.90;;;;;;5029059;28;20263;-88
2021/01/21 06:05:50;;;;;;;30.13;12.67;;;8.30;99.90;;;;;;5016552;28;20242;-90
2021/01/21 06:08:21;;;;;;;15.97;10.00;;;8.30;99.90;;;;;;5013373;28;20250;-86
2021/01/21 06:10:47;;;;;;;17.20;11.97;;;8.50;99.90;;;;;;5012983;28;20212;-85
2021/01/21 06:13:16;;;;;;;19.47;12.60;;;8.50;99.90;;;;;;5017609;28;20643;-90
2021/01/21 06:15:45;;;;;;;22.60;16.13;;;8.30;99.90;;;;;;5012254;28;20627;-88
2021/01/21 06:18:11;;;;;;;21.03;13.07;;;8.10;99.90;;;;;;5013149;28;20212;-88
2021/01/21 06:20:37;;;;;;;16.23;14.33;;;8.00;99.90;;;;;;5013714;28;20216;-84
2021/01/21 06:23:05;;;;;;;22.63;16.47;;;8.00;99.90;;;;;;5012353;28;20254;-86
2021/01/21 06:25:32;;;;;;;15.07;12.17;;;7.90;99.90;;;;;;5012412;28;20271;-87
2021/01/21 06:28:01;;;;;;;18.00;12.83;;;7.90;99.90;;;;;;5012520;28;20206;-87
2021/01/21 06:30:28;;;;;;;23.37;11.60;;;7.80;99.90;;;;;;5014640;28;20296;-83
2021/01/21 06:33:01;;;;;;;19.63;11.00;;;7.80;99.90;;;;;;5012780;28;20220;-82
2021/01/21 06:35:32;;;;;;;23.13;15.83;;;7.70;99.90;;;;;;5012456;28;20278;-91
2021/01/21 06:38:06;;;;;;;16.70;13.47;;;7.40;99.90;;;;;;5012420;28;20690;-80
2021/01/21 06:40:34;;;;;;;21.47;12.97;;;7.30;99.90;;;;;;5011651;28;20216;-84
2021/01/21 06:43:07;;;;;;;23.07;18.20;;;7.30;99.90;;;;;;5012291;28;20208;-86
2021/01/21 06:45:34;;;;;;;34.30;15.97;;;7.40;99.90;;;;;;5011174;28;20216;-81
2021/01/21 06:48:02;;;;;;;21.27;13.87;;;7.50;99.90;;;;;;4998244;28;20738;-83
2021/01/21 06:50:30;;;;;;;18.53;12.80;;;7.40;99.90;;;;;;5011775;28;20208;-75
2021/01/21 06:52:59;;;;;;;22.63;13.97;;;7.40;99.90;;;;;;5011896;28;20212;-81
2021/01/21 06:55:27;;;;;;;18.97;13.63;;;7.50;99.90;;;;;;5011745;28;20246;-82
2021/01/21 06:57:54;;;;;;;18.00;13.53;;;7.50;99.90;;;;;;5011844;28;20204;-82
2021/01/21 07:00:40;;;;;;;20.40;13.83;;;7.50;99.90;;;;;;5011980;28;20212;-83
2021/01/21 07:03:08;;;;;;;28.47;14.17;;;7.50;99.90;;;;;;5011830;28;20243;-83
2021/01/21 07:05:35;;;;;;;22.77;13.83;;;7.60;99.90;;;;;;5011318;28;20215;-83
2021/01/21 07:08:06;;;;;;;25.33;14.60;;;7.60;99.90;;;;;;5012103;28;20279;-84
2021/01/21 07:10:36;;;;;;;27.93;14.03;;;7.60;99.90;;;;;;5011797;28;20236;-85
2021/01/21 07:13:05;;;;;;;17.10;12.43;;;7.60;99.90;;;;;;5011786;28;20215;-83
2021/01/21 07:15:34;;;;;;;22.90;13.47;;;7.70;99.90;;;;;;5010992;28;20236;-82
2021/01/21 07:18:05;;;;;;;23.37;14.00;;;7.60;99.90;;;;;;5011098;28;20207;-83
2021/01/21 07:20:36;;;;;;;23.53;16.13;;;7.70;99.90;;;;;;5011402;28;20204;-81
2021/01/21 07:23:07;;;;;;;27.80;14.63;;;7.80;99.90;;;;;;5011273;28;20291;-83
2021/01/21 07:25:35;;;;;;;25.03;14.47;;;7.70;99.90;;;;;;5010800;28;20208;-82
2021/01/21 07:28:09;;;;;;;26.37;15.33;;;7.80;99.90;;;;;;5011187;28;20262;-81
2021/01/21 07:30:39;;;;;;;26.90;15.37;;;7.80;99.90;;;;;;4997577;28;20205;-82
2021/01/21 07:33:23;;;;;;;27.70;15.97;;;7.90;99.90;;;;;;5011415;28;20204;-80
2021/01/21 07:35:51;;;;;;;22.07;14.37;;;7.80;99.90;;;;;;5008859;28;20212;-87
2021/01/21 07:38:51;;;;;;;23.20;14.03;;;7.90;99.90;;;;;;5011946;28;20242;-88
2021/01/21 07:41:53;;;;;;;20.30;13.63;;;8.00;99.90;;;;;;4997079;28;20208;-87
2021/01/21 07:44:20;;;;;;;20.53;12.77;;;7.90;99.90;;;;;;5013193;28;20207;-86
2021/01/21 07:46:47;;;;;;;20.37;12.10;;;8.00;99.90;;;;;;5011806;28;20588;-89
2021/01/21 07:49:26;;;;;;;25.13;17.27;;;8.40;99.90;;;;;;5011399;28;20208;-85
2021/01/21 07:52:11;;;;;;;26.07;17.07;;;8.70;99.90;;;;;;5011833;28;20231;-79
2021/01/21 07:54:45;;;;;;;21.10;13.33;;;8.80;99.90;;;;;;5010669;28;20274;-81
2021/01/21 07:57:11;;;;;;;15.93;12.53;;;8.90;99.90;;;;;;5017733;28;20577;-84
2021/01/21 07:59:56;;;;;;;18.90;11.90;;;9.00;99.90;;;;;;5016014;28;20702;-86
2021/01/21 08:02:22;;;;;;;16.87;10.53;;;9.00;99.90;;;;;;5015888;28;20244;-87
2021/01/21 08:04:58;;;;;;;19.93;13.23;;;9.10;99.90;;;;;;5015258;28;20217;-85
2021/01/21 08:07:40;;;;;;;21.20;11.97;;;9.20;99.90;;;;;;5015994;28;20294;-84
2021/01/21 08:10:08;;;;;;;20.93;13.03;;;9.20;99.90;;;;;;5003144;28;20592;-86
2021/01/21 08:12:35;;;;;;;23.73;11.37;;;9.30;99.90;;;;;;5015326;28;20215;-82
2021/01/21 08:15:02;;;;;;;12.53;10.10;;;9.30;99.90;;;;;;5014988;28;20283;-83
2021/01/21 08:17:28;;;;;;;17.50;10.30;;;9.40;99.90;;;;;;5014739;28;20684;-79
2021/01/21 08:19:55;;;;;;;16.83;10.73;;;9.50;99.90;;;;;;5014830;28;20208;-83
2021/01/21 08:22:22;;;;;;;23.77;9.17;;;9.50;99.90;;;;;;5014705;28;20707;-83
2021/01/21 08:24:59;;;;;;;18.47;10.17;;;9.60;99.90;;;;;;5013672;28;20591;-82
2021/01/21 08:27:39;;;;;;;17.60;9.93;;;9.70;99.90;;;;;;5015101;28;20258;-85
2021/01/21 08:30:20;;;;;;;13.47;8.77;;;9.80;99.90;;;;;;5014624;28;20214;-85
2021/01/21 08:32:51;;;;;;;16.53;9.37;;;9.90;99.90;;;;;;5013894;28;20224;-83
2021/01/21 08:35:21;;;;;;;14.87;9.73;;;10.00;99.90;;;;;;5022067;28;20602;-82
2021/01/21 08:37:49;;;;;;;13.57;9.37;;;10.00;99.90;;;;;;5017539;28;20216;-83
2021/01/21 08:40:18;;;;;;;13.37;9.50;;;10.00;99.90;;;;;;5005055;28;20213;-79
2021/01/21 08:42:47;;;;;;;19.00;10.20;;;10.00;99.90;;;;;;5014751;28;20200;-82
2021/01/21 08:45:14;;;;;;;16.63;9.70;;;10.00;99.90;;;;;;5016438;28;20208;-82
2021/01/21 08:47:43;;;;;;;18.97;9.40;;;10.00;99.90;;;;;;5020597;28;20204;-78
2021/01/21 08:50:11;;;;;;;19.90;10.10;;;10.00;99.90;;;;;;5013660;28;20215;-81
2021/01/21 08:52:59;;;;;;;17.83;9.63;;;10.10;99.90;;;;;;5012870;28;20691;-81
2021/01/21 08:55:41;;;;;;;17.47;9.40;;;10.20;99.90;;;;;;5013840;28;20255;-82
2021/01/21 08:58:09;;;;;;;18.57;8.97;;;10.30;99.90;;;;;;5014597;28;20327;-83
2021/01/21 09:00:36;;;;;;;16.40;8.47;;;10.50;99.90;;;;;;5013226;28;20224;-82
2021/01/21 09:03:03;;;;;;;14.10;7.93;;;10.50;99.90;;;;;;5015389;28;20250;-82
2021/01/21 09:05:30;;;;;;;13.77;7.40;;;10.60;99.90;;;;;;5018605;28;20247;-86
2021/01/21 09:08:07;;;;;;;11.93;6.97;;;10.80;99.90;;;;;;5017821;28;20207;-76
2021/01/21 09:10:45;;;;;;;12.90;8.80;;;10.90;99.90;;;;;;5009180;28;20211;-84
2021/01/21 09:13:12;;;;;;;14.87;8.03;;;11.30;99.90;;;;;;5010920;28;20201;-85
2021/01/21 09:15:55;;;;;;;16.20;8.03;;;11.20;99.90;;;;;;5023970;28;20243;-85
2021/01/21 09:18:22;;;;;;;16.00;8.47;;;11.30;99.90;;;;;;5016604;28;20207;-84
2021/01/21 09:20:49;;;;;;;22.30;8.43;;;11.30;99.90;;;;;;5014140;28;20208;-85
2021/01/21 09:23:19;;;;;;;15.27;7.17;;;11.60;99.90;;;;;;5009092;28;20212;-82
2021/01/21 09:25:47;;;;;;;14.67;8.03;;;11.70;99.90;;;;;;5019598;28;20665;-81
2021/01/21 09:28:14;;;;;;;20.37;7.87;;;12.00;99.90;;;;;;5013008;28;20581;-80
2021/01/21 09:30:41;;;;;;;10.97;7.03;;;12.70;99.90;;;;;;5012777;28;20207;-83
2021/01/21 09:33:09;;;;;;;17.80;9.80;;;12.80;99.90;;;;;;5012008;28;20204;-79
2021/01/21 09:35:37;;;;;;;20.30;8.00;;;12.20;99.90;;;;;;5021954;28;20238;-81
2021/01/21 09:38:04;;;;;;;13.97;8.90;;;12.50;99.90;;;;;;5011375;28;20294;-81
2021/01/21 09:40:32;;;;;;;14.13;8.40;;;12.50;99.90;;;;;;5012718;28;20208;-84
2021/01/21 09:43:00;;;;;;;11.73;7.47;;;12.50;99.90;;;;;;5015725;28;20211;-75
2021/01/21 09:45:27;;;;;;;12.67;8.13;;;13.10;99.90;;;;;;5015448;28;20261;-78
2021/01/21 09:47:54;;;;;;;12.40;8.50;;;13.20;99.90;;;;;;5013996;28;20223;-85
2021/01/21 09:50:23;;;;;;;18.20;6.97;;;13.40;99.90;;;;;;5013040;28;20211;-80
2021/01/21 09:52:50;;;;;;;13.73;7.55;;;13.80;99.90;;;;;;5011915;28;20204;-81
2021/01/21 09:55:17;;;;;;;10.30;7.13;;;13.70;99.90;;;;;;5015702;28;20447;-81
2021/01/21 09:57:43;;;;;;;14.63;8.32;;;14.60;99.90;;;;;;5018342;28;20253;-83
2021/01/21 10:00:12;;;;;;;11.43;7.78;;;15.30;99.90;;;;;;5012555;28;20204;-79
2021/01/21 10:02:39;;;;;;;12.40;7.97;;;14.80;99.90;;;;;;5018599;28;20208;-83
2021/01/21 10:05:07;;;;;;;10.52;6.63;;;14.60;99.90;;;;;;5018316;28;20574;-84
2021/01/21 10:07:33;;;;;;;12.00;7.82;;;14.00;99.90;;;;;;5018544;28;20208;-85
2021/01/21 10:10:00;;;;;;;9.00;7.32;;;13.30;99.90;;;;;;5016873;28;20748;-81
2021/01/21 10:12:26;;;;;;;12.30;6.88;;;14.30;99.90;;;;;;5020376;28;20686;-83
2021/01/21 10:14:56;;;;;;;12.18;8.38;;;14.50;99.90;;;;;;5002288;28;20609;-80
2021/01/21 10:17:23;;;;;;;9.18;7.15;;;15.00;99.90;;;;;;5016222;28;20204;-79
2021/01/21 10:19:50;;;;;;;15.13;7.25;;;14.50;99.90;;;;;;5015380;28;20214;-79
2021/01/21 10:22:16;;;;;;;14.23;7.20;;;15.30;99.90;;;;;;5018028;28;20207;-79
2021/01/21 10:24:44;;;;;;;13.63;8.35;;;15.70;99.90;;;;;;5008523;28;20230;-77
2021/01/21 10:27:11;;;;;;;13.80;7.13;;;15.40;99.90;;;;;;5006154;28;20209;-78
2021/01/21 10:29:37;;;;;;;15.55;7.30;;;15.90;99.90;;;;;;5021532;28;20207;-81
2021/01/21 10:32:04;;;;;;;16.00;8.02;;;15.30;99.90;;;;;;5011416;28;20211;-78
2021/01/21 10:34:32;;;;;;;17.33;7.40;;;15.20;99.90;;;;;;5014700;28;20788;-80
2021/01/21 10:36:59;;;;;;;20.13;8.63;;;14.10;99.90;;;;;;5014605;28;20289;-81
2021/01/21 10:39:25;;;;;;;14.57;8.23;;;13.60;99.90;;;;;;5018596;28;20204;-83
2021/01/21 10:41:52;;;;;;;14.95;8.13;;;13.70;99.90;;;;;;5011282;28;20208;-78
2021/01/21 10:44:18;;;;;;;17.15;7.85;;;13.10;99.90;;;;;;5011325;28;20240;-79
2021/01/21 10:46:45;;;;;;;13.40;7.28;;;13.20;99.90;;;;;;5011291;28;20209;-79
2021/01/21 10:49:11;;;;;;;17.63;7.95;;;13.40;99.90;;;;;;5015816;28;20204;-77
2021/01/21 10:51:38;;;;;;;13.25;7.28;;;13.50;99.90;;;;;;5019215;28;20208;-78
2021/01/21 10:54:05;;;;;;;12.15;7.07;;;13.30;99.90;;;;;;5010845;28;20267;-74
2021/01/21 10:56:33;;;;;;;12.93;7.22;;;13.40;99.90;;;;;;5010732;28;20219;-76
2021/01/21 10:59:01;;;;;;;20.63;7.25;;;13.90;99.90;;;;;;5011145;28;20212;-75
2021/01/21 11:01:28;;;;;;;11.38;7.38;;;13.50;99.90;;;;;;5011129;28;20219;-74
2021/01/21 11:03:54;;;;;;;20.05;7.78;;;13.20;99.90;;;;;;5011272;28;20212;-77
2021/01/21 11:06:21;;;;;;;14.43;7.78;;;13.40;99.90;;;;;;5010898;28;20603;-76
2021/01/21 11:08:48;;;;;;;13.25;6.38;;;13.60;99.90;;;;;;5010738;28;20688;-76
2021/01/21 11:11:14;;;;;;;10.98;6.78;;;13.80;99.90;;;;;;5010648;28;20285;-78
2021/01/21 11:13:41;;;;;;;12.45;7.30;;;13.50;99.90;;;;;;5010552;28;20583;-79
2021/01/21 11:16:08;;;;;;;11.10;7.18;;;13.30;99.90;;;;;;5011145;28;20696;-82
2021/01/21 11:18:35;;;;;;;15.02;7.65;;;13.30;99.90;;;;;;5010434;28;20223;-80
2021/01/21 11:21:01;;;;;;;14.95;7.65;;;13.30;99.90;;;;;;4995425;28;20205;-77
2021/01/21 11:23:28;;;;;;;12.85;7.68;;;13.30;99.90;;;;;;5025098;28;20213;-79
2021/01/21 11:25:55;;;;;;;21.88;7.07;;;13.50;99.90;;;;;;5016487;28;20207;-79
2021/01/21 11:28:22;;;;;;;12.13;6.40;;;13.50;99.90;;;;;;5011717;28;20221;-78
2021/01/21 11:30:48;;;;;;;9.30;6.10;;;13.30;99.90;;;;;;5011305;28;20203;-81
2021/01/21 11:33:15;;;;;;;10.38;6.57;;;13.40;99.90;;;;;;5011826;28;20204;-81
2021/01/21 11:35:42;;;;;;;10.93;7.03;;;13.40;99.90;;;;;;5010411;28;20289;-77
2021/01/21 11:38:08;;;;;;;10.90;6.63;;;13.40;99.90;;;;;;5010594;28;20244;-79
2021/01/21 11:40:35;;;;;;;14.38;7.35;;;13.40;99.90;;;;;;5010027;28;20259;-81
2021/01/21 11:43:02;;;;;;;17.17;7.45;;;13.40;99.90;;;;;;5010629;28;20212;-80
2021/01/21 11:45:30;;;;;;;19.08;6.75;;;13.50;99.90;;;;;;5010470;28;20208;-77
2021/01/21 11:47:56;;;;;;;13.30;6.88;;;13.60;99.90;;;;;;5008815;28;20287;-78
2021/01/21 11:50:23;;;;;;;14.57;7.78;;;13.80;99.90;;;;;;5006355;28;20212;-78
2021/01/21 11:52:49;;;;;;;16.83;7.18;;;13.80;99.90;;;;;;5011540;28;20215;-76
2021/01/21 11:55:16;;;;;;;16.08;7.68;;;13.80;99.90;;;;;;5010705;28;20228;-76
2021/01/21 11:57:42;;;;;;;14.55;7.10;;;13.60;99.90;;;;;;5014198;28;20254;-76
2021/01/21 12:00:12;;;;;;;12.15;6.93;;;13.70;99.90;;;;;;5011732;28;20204;-75
2021/01/21 12:02:39;;;;;;;15.43;7.07;;;13.60;99.90;;;;;;5009710;28;20261;-76
2021/01/21 12:05:07;;;;;;;12.05;7.20;;;13.60;99.90;;;;;;5010454;28;20287;-78
2021/01/21 12:07:34;;;;;;;16.65;7.63;;;13.80;99.90;;;;;;5005071;28;20258;-77
2021/01/21 12:10:00;;;;;;;12.00;6.25;;;13.70;99.90;;;;;;5010310;28;20270;-78
2021/01/21 12:12:27;;;;;;;10.52;6.55;;;13.70;99.90;;;;;;5010637;28;20215;-76
2021/01/21 12:14:53;;;;;;;13.23;6.60;;;13.70;99.90;;;;;;5016902;28;20339;-79
2021/01/21 12:17:21;;;;;;;12.07;6.20;;;13.70;99.90;;;;;;5009834;28;20204;-77
2021/01/21 12:19:47;;;;;;;15.85;8.18;;;13.70;99.90;;;;;;5009962;28;20224;-78
2021/01/21 12:22:14;;;;;;;8.35;6.95;;;13.80;99.90;;;;;;5016339;28;20220;-79
2021/01/21 12:24:41;;;;;;;13.95;7.05;;;13.80;99.90;;;;;;5010078;28;20208;-79
2021/01/21 12:27:08;;;;;;;11.98;6.45;;;13.90;99.90;;;;;;5013243;28;20213;-77
2021/01/21 12:29:35;;;;;;;13.95;7.38;;;14.00;99.90;;;;;;5008037;28;20205;-79
2021/01/21 12:32:01;;;;;;;11.27;5.97;;;13.90;99.90;;;;;;5005718;28;20208;-79
2021/01/21 12:34:28;;;;;;;12.55;7.45;;;13.90;99.90;;;;;;5009840;28;20267;-80
2021/01/21 12:36:55;;;;;;;17.17;6.78;;;14.00;99.90;;;;;;5010544;28;20223;-80
2021/01/21 12:39:22;;;;;;;11.70;5.88;;;14.10;99.90;;;;;;5012898;28;20212;-78
2021/01/21 12:41:49;;;;;;;11.52;7.43;;;14.30;99.90;;;;;;5009947;28;20758;-79
2021/01/21 12:44:15;;;;;;;16.73;7.07;;;14.20;99.90;;;;;;5012841;28;20254;-80